Time;durP1;ratioP1;P1;durP2;ratioP2;P2;SDS_P1;SDS_P2;PMS_P1;PMS_P2;Temp;Humidity;BMP_temperature;BMP_pressure;BME280_temperature;BME280_humidity;BME280_pressure;Samples;Min_cycle;Max_cycle;Signal;HPM_P1;HPM_P2
2023/10/28 00:00:15;;;;;;;;;;;11.20;91.60;;;;;;5101280;28;19928;-69
2023/10/28 00:02:51;;;;;;;;;;;11.20;91.70;;;;;;5102663;28;19935;-69
2023/10/28 00:05:24;;;;;;;;;;;11.10;91.70;;;;;;5102982;28;19924;-68
2023/10/28 00:07:57;;;;;;;;;;;11.20;91.80;;;;;;5102953;28;19928;-70
2023/10/28 00:10:31;;;;;;;;;;;11.20;91.70;;;;;;5098881;28;19932;-69
2023/10/28 00:13:08;;;;;;;;;;;11.20;91.70;;;;;;5103925;28;19930;-69
2023/10/28 00:15:41;;;;;;;;;;;11.20;91.70;;;;;;5101888;28;19924;-69
2023/10/28 00:18:09;;;;;;;;;;;11.20;91.80;;;;;;5100200;28;19933;-70
2023/10/28 00:20:44;;;;;;;;;;;11.20;91.70;;;;;;5101666;27;20018;-69
2023/10/28 00:23:17;;;;;;;;;;;11.20;91.90;;;;;;5095640;28;20446;-69
2023/10/28 00:25:50;;;;;;;;;;;11.20;91.80;;;;;;5097523;28;19935;-60
2023/10/28 00:28:23;;;;;;;;;;;11.20;91.80;;;;;;5086144;27;19931;-61
2023/10/28 00:30:56;;;;;;;;;;;11.20;91.80;;;;;;5095859;28;20038;-59
2023/10/28 00:33:31;;;;;;;;;;;11.20;91.80;;;;;;5098815;28;19924;-60
2023/10/28 00:36:09;;;;;;;;;;;11.20;91.80;;;;;;5084026;28;19938;-62
2023/10/28 00:38:42;;;;;;;;;;;11.20;91.90;;;;;;5096915;28;19927;-60
2023/10/28 00:41:17;;;;;;;;;;;11.20;91.90;;;;;;5096964;27;20311;-61
2023/10/28 00:43:50;;;;;;;;;;;11.20;91.90;;;;;;5096265;28;19971;-62
2023/10/28 00:46:23;;;;;;;;;;;11.20;91.90;;;;;;5110027;27;20678;-60
2023/10/28 00:48:58;;;;;;;;;;;11.20;92.00;;;;;;5111157;27;20019;-60
2023/10/28 00:51:31;;;;;;;;;;;11.20;91.90;;;;;;5097836;28;19924;-60
2023/10/28 00:54:04;;;;;;;;;;;11.30;91.90;;;;;;5098289;28;19932;-60
2023/10/28 00:56:37;;;;;;;;;;;11.20;91.90;;;;;;5100157;28;19924;-60
2023/10/28 00:59:10;;;;;;;;;;;11.20;91.90;;;;;;5108850;27;20337;-60
2023/10/28 01:01:43;;;;;;;;;;;11.20;91.80;;;;;;5093418;28;20057;-60
2023/10/28 01:04:18;;;;;;;;;;;11.30;91.90;;;;;;5110904;27;19930;-61
2023/10/28 01:06:51;;;;;;;;;;;11.30;92.00;;;;;;5087943;28;20444;-60
2023/10/28 01:09:25;;;;;;;;;;;11.20;92.00;;;;;;5098918;28;19928;-61
2023/10/28 01:11:59;;;;;;;;;;;11.30;91.90;;;;;;5108039;27;20291;-60
2023/10/28 01:14:31;;;;;;;;;;;11.30;92.10;;;;;;5097463;28;19985;-60
2023/10/28 01:17:04;;;;;;;;;;;11.30;92.20;;;;;;5096550;28;19924;-61
2023/10/28 01:19:39;;;;;;;;;;;11.20;92.20;;;;;;5098839;28;19928;-61
2023/10/28 01:22:14;;;;;;;;;;;11.20;92.20;;;;;;5097445;28;19928;-61
2023/10/28 01:24:49;;;;;;;;;;;11.20;92.30;;;;;;5097726;28;20001;-61
2023/10/28 01:27:22;;;;;;;;;;;11.20;92.30;;;;;;5098243;28;19941;-61
2023/10/28 01:29:55;;;;;;;;;;;11.20;92.50;;;;;;5095591;28;19932;-61
2023/10/28 01:32:28;;;;;;;;;;;11.20;92.40;;;;;;5094344;28;19924;-61
2023/10/28 01:35:01;;;;;;;;;;;11.20;92.30;;;;;;5094395;28;21629;-61
2023/10/28 01:37:37;;;;;;;;;;;11.20;92.40;;;;;;5098185;28;20298;-67
2023/10/28 01:40:13;;;;;;;;;;;11.20;92.40;;;;;;5084782;28;20024;-67
2023/10/28 01:42:47;;;;;;;;;;;11.20;92.30;;;;;;5096790;28;20449;-68
2023/10/28 01:45:21;;;;;;;;;;;11.20;92.30;;;;;;5095494;28;20336;-68
2023/10/28 01:47:54;;;;;;;;;;;11.20;92.30;;;;;;5096168;28;19951;-67
2023/10/28 01:50:27;;;;;;;;;;;11.20;92.50;;;;;;5091090;28;19927;-67
2023/10/28 01:53:03;;;;;;;;;;;11.20;92.30;;;;;;5094119;28;19928;-66
2023/10/28 01:55:36;;;;;;;;;;;11.20;92.30;;;;;;5091758;28;19960;-66
2023/10/28 01:58:09;;;;;;;;;;;11.30;92.40;;;;;;5092860;28;19928;-66
2023/10/28 02:00:42;;;;;;;;;;;11.30;92.20;;;;;;5090972;28;20466;-67
2023/10/28 02:03:15;;;;;;;;;;;11.30;92.10;;;;;;5096318;28;20367;-66
2023/10/28 02:05:48;;;;;;;;;;;11.30;92.10;;;;;;5093685;28;19924;-66
2023/10/28 02:08:23;;;;;;;;;;;11.30;92.20;;;;;;5096200;28;19946;-67
2023/10/28 02:10:56;;;;;;;;;;;11.30;92.10;;;;;;5096887;28;20020;-66
2023/10/28 02:13:30;;;;;;;;;;;11.30;92.10;;;;;;5097542;28;19924;-68
2023/10/28 02:16:03;;;;;;;;;;;11.30;92.20;;;;;;5090473;28;20016;-68
2023/10/28 02:18:36;;;;;;;;;;;11.30;92.10;;;;;;5092312;28;20371;-68
2023/10/28 02:21:09;;;;;;;;;;;11.30;92.10;;;;;;5109012;27;19942;-68
2023/10/28 02:23:44;;;;;;;;;;;11.30;92.20;;;;;;5096818;28;19949;-67
2023/10/28 02:26:16;;;;;;;;;;;11.20;92.20;;;;;;5101434;28;19938;-66
2023/10/28 02:28:49;;;;;;;;;;;11.20;92.30;;;;;;5091987;28;19932;-66
2023/10/28 02:31:22;;;;;;;;;;;11.20;92.30;;;;;;5094180;28;19928;-67
2023/10/28 02:33:55;;;;;;;;;;;11.20;92.40;;;;;;5097063;28;19928;-68
2023/10/28 02:36:28;;;;;;;;;;;11.20;92.30;;;;;;5098424;28;19929;-67
2023/10/28 02:39:03;;;;;;;;;;;11.20;92.40;;;;;;5107548;28;20291;-66
2023/10/28 02:41:38;;;;;;;;;;;11.20;92.40;;;;;;5096212;28;19931;-68
2023/10/28 02:44:11;;;;;;;;;;;11.20;92.40;;;;;;5110776;28;20306;-67
2023/10/28 02:46:44;;;;;;;;;;;11.20;92.30;;;;;;5093934;28;19928;-60
2023/10/28 02:49:17;;;;;;;;;;;11.20;92.30;;;;;;5098542;28;19965;-59
2023/10/28 02:51:50;;;;;;;;;;;11.20;92.20;;;;;;5093962;28;20008;-61
2023/10/28 02:54:35;;;;;;;;;;;11.20;92.20;;;;;;5098042;28;19931;-61
2023/10/28 02:57:11;;;;;;;;;;;11.20;92.10;;;;;;5100343;28;19973;-60
2023/10/28 02:59:46;;;;;;;;;;;11.20;92.10;;;;;;5094767;28;20035;-61
2023/10/28 03:02:18;;;;;;;;;;;11.20;92.10;;;;;;5098992;28;19977;-60
2023/10/28 03:04:51;;;;;;;;;;;11.20;92.00;;;;;;5096284;28;19924;-61
2023/10/28 03:07:34;;;;;;;;;;;11.20;92.00;;;;;;5095818;28;19955;-61
2023/10/28 03:10:10;;;;;;;;;;;11.20;91.80;;;;;;5101499;28;19928;-60
2023/10/28 03:12:44;;;;;;;;;;;11.20;91.80;;;;;;5100932;28;20022;-60
2023/10/28 03:15:18;;;;;;;;;;;11.10;91.70;;;;;;5091410;28;20027;-61
2023/10/28 03:17:51;;;;;;;;;;;11.10;91.60;;;;;;5101448;28;19962;-60
2023/10/28 03:20:24;;;;;;;;;;;11.10;91.50;;;;;;5101069;28;20367;-61
2023/10/28 03:22:57;;;;;;;;;;;11.10;91.50;;;;;;5097624;28;19971;-61
2023/10/28 03:25:31;;;;;;;;;;;11.10;91.50;;;;;;5097270;28;19988;-60
2023/10/28 03:28:06;;;;;;;;;;;11.10;91.50;;;;;;5100483;27;19934;-61
2023/10/28 03:30:40;;;;;;;;;;;11.20;91.40;;;;;;5101037;27;20337;-61
2023/10/28 03:33:13;;;;;;;;;;;11.10;91.40;;;;;;5100321;28;19936;-61
2023/10/28 03:35:47;;;;;;;;;;;11.10;91.40;;;;;;5099797;28;19927;-60
2023/10/28 03:38:20;;;;;;;;;;;11.10;91.40;;;;;;5109668;27;20438;-61
2023/10/28 03:40:53;;;;;;;;;;;11.10;91.10;;;;;;5100089;28;19935;-59
2023/10/28 03:43:28;;;;;;;;;;;11.10;91.10;;;;;;5092339;27;19939;-61
2023/10/28 03:46:02;;;;;;;;;;;11.10;91.00;;;;;;5097777;28;19924;-59
2023/10/28 03:48:34;;;;;;;;;;;11.10;91.00;;;;;;5098484;28;20027;-60
2023/10/28 03:51:07;;;;;;;;;;;11.10;91.00;;;;;;5099332;28;19924;-62
2023/10/28 03:53:40;;;;;;;;;;;11.00;91.00;;;;;;5099726;28;20413;-60
2023/10/28 03:56:14;;;;;;;;;;;11.10;91.00;;;;;;5099398;27;19932;-61
2023/10/28 03:58:58;;;;;;;;;;;11.10;91.00;;;;;;5097109;28;19987;-61
2023/10/28 04:01:33;;;;;;;;;;;11.10;90.90;;;;;;5098651;28;19931;-60
2023/10/28 04:04:06;;;;;;;;;;;11.10;90.90;;;;;;5099421;28;20008;-61
2023/10/28 04:06:33;;;;;;;;;;;11.10;90.90;;;;;;5102327;28;19928;-66
2023/10/28 04:09:07;;;;;;;;;;;11.10;90.90;;;;;;5098574;28;20394;-67
2023/10/28 04:11:40;;;;;;;;;;;11.10;90.80;;;;;;5099081;28;19965;-67
2023/10/28 04:14:16;;;;;;;;;;;11.00;90.80;;;;;;5100931;28;19932;-67
2023/10/28 04:16:52;;;;;;;;;;;11.00;90.70;;;;;;5099331;28;19930;-67
2023/10/28 04:19:26;;;;;;;;;;;11.10;90.70;;;;;;5097485;28;19931;-67
2023/10/28 04:21:59;;;;;;;;;;;11.00;90.60;;;;;;5100972;28;19928;-67
2023/10/28 04:24:39;;;;;;;;;;;11.00;90.60;;;;;;5098721;28;19932;-66
2023/10/28 04:27:18;;;;;;;;;;;11.00;90.50;;;;;;5099421;28;19934;-68
2023/10/28 04:29:54;;;;;;;;;;;10.90;90.50;;;;;;5099590;28;20309;-67
2023/10/28 04:32:27;;;;;;;;;;;10.90;90.30;;;;;;5098904;28;19924;-69
2023/10/28 04:35:00;;;;;;;;;;;10.90;90.30;;;;;;5101315;28;20011;-69
2023/10/28 04:37:34;;;;;;;;;;;10.90;90.20;;;;;;5101257;28;20375;-69
2023/10/28 04:40:07;;;;;;;;;;;10.90;90.30;;;;;;5102245;28;19937;-69
2023/10/28 04:42:40;;;;;;;;;;;10.90;90.20;;;;;;5098006;28;20378;-69
2023/10/28 04:45:15;;;;;;;;;;;10.80;90.30;;;;;;5089705;28;20402;-69
2023/10/28 04:47:49;;;;;;;;;;;10.80;90.20;;;;;;5098851;27;19940;-69
2023/10/28 04:50:22;;;;;;;;;;;10.90;90.10;;;;;;5100029;28;20027;-69
2023/10/28 04:52:49;;;;;;;;;;;10.90;90.20;;;;;;5100144;28;20006;-70
2023/10/28 04:55:29;;;;;;;;;;;10.80;90.00;;;;;;5092998;27;19927;-70
2023/10/28 04:58:05;;;;;;;;;;;10.80;90.20;;;;;;5102082;27;19977;-70
2023/10/28 05:00:43;;;;;;;;;;;10.90;90.00;;;;;;5095632;28;20020;-70
2023/10/28 05:03:29;;;;;;;;;;;10.80;90.00;;;;;;5099741;28;19928;-70
2023/10/28 05:06:02;;;;;;;;;;;10.80;89.80;;;;;;5096902;27;19928;-70
2023/10/28 05:08:35;;;;;;;;;;;10.80;89.90;;;;;;5099811;28;19931;-70
2023/10/28 05:11:11;;;;;;;;;;;10.80;89.90;;;;;;5100240;28;20003;-70
2023/10/28 05:13:44;;;;;;;;;;;10.80;89.90;;;;;;5095457;28;20038;-69
2023/10/28 05:16:19;;;;;;;;;;;10.80;89.90;;;;;;5095924;28;20027;-63
2023/10/28 05:18:52;;;;;;;;;;;10.90;89.90;;;;;;5098453;28;20334;-65
2023/10/28 05:21:19;;;;;;;;;;;10.80;89.90;;;;;;5097750;28;19927;-63
2023/10/28 05:23:53;;;;;;;;;;;10.80;90.00;;;;;;5099186;28;19923;-62
2023/10/28 05:26:26;;;;;;;;;;;10.80;90.10;;;;;;5098193;27;19932;-63
2023/10/28 05:28:59;;;;;;;;;;;10.80;90.20;;;;;;5094099;28;19939;-63
2023/10/28 05:31:40;;;;;;;;;;;10.80;90.30;;;;;;5095630;27;19942;-63
2023/10/28 05:34:13;;;;;;;;;;;10.90;90.40;;;;;;5100429;28;19928;-64
2023/10/28 05:36:46;;;;;;;;;;;10.90;90.50;;;;;;5098313;28;20367;-63
2023/10/28 05:39:20;;;;;;;;;;;10.80;90.60;;;;;;5096666;28;19954;-64
2023/10/28 05:41:53;;;;;;;;;;;10.80;90.80;;;;;;5097479;28;19928;-64
2023/10/28 05:44:26;;;;;;;;;;;10.80;90.80;;;;;;5098603;28;19928;-63
2023/10/28 05:47:01;;;;;;;;;;;10.80;90.90;;;;;;5096661;28;19956;-62
2023/10/28 05:49:34;;;;;;;;;;;10.80;90.80;;;;;;5093713;28;19931;-63
2023/10/28 05:52:09;;;;;;;;;;;10.90;90.80;;;;;;5098205;28;20436;-63
2023/10/28 05:54:42;;;;;;;;;;;10.90;90.90;;;;;;5099130;28;20364;-63
2023/10/28 05:57:16;;;;;;;;;;;10.90;91.00;;;;;;5099088;28;20650;-64
2023/10/28 05:59:50;;;;;;;;;;;10.90;91.00;;;;;;5098694;28;19936;-63
2023/10/28 06:02:25;;;;;;;;;;;10.90;91.00;;;;;;5097439;28;20447;-62
2023/10/28 06:04:58;;;;;;;;;;;10.90;90.90;;;;;;5101604;28;19946;-63
2023/10/28 06:07:31;;;;;;;;;;;10.90;91.10;;;;;;5093045;28;19993;-62
2023/10/28 06:10:07;;;;;;;;;;;10.90;91.10;;;;;;5094865;28;20487;-63
2023/10/28 06:12:40;;;;;;;;;;;10.90;91.30;;;;;;5100260;28;19924;-63
2023/10/28 06:15:14;;;;;;;;;;;10.90;91.30;;;;;;5097487;28;19963;-63
2023/10/28 06:17:48;;;;;;;;;;;10.90;91.40;;;;;;5099097;28;19924;-62
2023/10/28 06:20:21;;;;;;;;;;;10.90;91.30;;;;;;5099783;28;20291;-64
2023/10/28 06:22:54;;;;;;;;;;;10.90;91.40;;;;;;5100599;28;19928;-62
2023/10/28 06:25:27;;;;;;;;;;;10.90;91.40;;;;;;5097968;27;19932;-62
2023/10/28 06:28:00;;;;;;;;;;;10.90;91.30;;;;;;5094930;28;19928;-69
2023/10/28 06:30:33;;;;;;;;;;;10.90;91.40;;;;;;5097151;28;19928;-70
2023/10/28 06:33:11;;;;;;;;;;;10.90;91.30;;;;;;5100965;28;20383;-68
2023/10/28 06:35:45;;;;;;;;;;;11.00;91.40;;;;;;5098699;28;19924;-70
2023/10/28 06:38:19;;;;;;;;;;;10.90;91.40;;;;;;5095539;28;19934;-71
2023/10/28 06:40:52;;;;;;;;;;;10.90;91.40;;;;;;5097382;28;19971;-71
2023/10/28 06:43:26;;;;;;;;;;;11.00;91.40;;;;;;5099831;28;19931;-70
2023/10/28 06:46:00;;;;;;;;;;;11.00;91.40;;;;;;5100010;27;19976;-69
2023/10/28 06:48:34;;;;;;;;;;;11.00;91.50;;;;;;5099514;28;19928;-68
2023/10/28 06:51:08;;;;;;;;;;;11.00;91.40;;;;;;5103724;28;19928;-69
2023/10/28 06:53:42;;;;;;;;;;;11.00;91.50;;;;;;5102122;28;20071;-70
2023/10/28 06:56:15;;;;;;;;;;;11.00;91.50;;;;;;5100430;27;19932;-70
2023/10/28 06:58:42;;;;;;;;;;;11.00;91.50;;;;;;5099275;28;20386;-68
2023/10/28 07:01:15;;;;;;;;;;;11.00;91.50;;;;;;5101497;28;19938;-71
2023/10/28 07:03:50;;;;;;;;;;;11.00;91.50;;;;;;5101062;28;19934;-70
2023/10/28 07:06:23;;;;;;;;;;;11.10;91.40;;;;;;5100124;28;19935;-69
2023/10/28 07:08:57;;;;;;;;;;;11.10;91.40;;;;;;5097612;27;19977;-69
2023/10/28 07:11:31;;;;;;;;;;;11.10;91.50;;;;;;5098763;28;20018;-71
2023/10/28 07:14:03;;;;;;;;;;;11.10;91.50;;;;;;5104696;27;20403;-71
2023/10/28 07:16:37;;;;;;;;;;;11.10;91.50;;;;;;5098537;28;19924;-70
2023/10/28 07:19:05;;;;;;;;;;;11.20;91.50;;;;;;5104117;28;20032;-70
2023/10/28 07:21:39;;;;;;;;;;;11.10;91.50;;;;;;5101138;28;19928;-69
2023/10/28 07:24:13;;;;;;;;;;;11.10;91.30;;;;;;5101601;28;20028;-68
2023/10/28 07:26:46;;;;;;;;;;;11.10;91.40;;;;;;5099416;28;20030;-69
2023/10/28 07:29:19;;;;;;;;;;;11.10;91.50;;;;;;5098506;28;19938;-68
2023/10/28 07:31:52;;;;;;;;;;;11.20;91.40;;;;;;5098847;28;19927;-68
2023/10/28 07:34:26;;;;;;;;;;;11.20;91.40;;;;;;5103958;28;19931;-68
2023/10/28 07:37:00;;;;;;;;;;;11.20;91.30;;;;;;5103830;28;19923;-61
2023/10/28 07:39:32;;;;;;;;;;;11.30;91.30;;;;;;5099529;28;19924;-60
2023/10/28 07:42:06;;;;;;;;;;;11.30;91.40;;;;;;5098615;28;19928;-61
2023/10/28 07:44:32;;;;;;;;;;;11.30;91.40;;;;;;5099466;28;19964;-61
2023/10/28 07:47:06;;;;;;;;;;;11.30;91.10;;;;;;5096182;28;19946;-60
2023/10/28 07:49:41;;;;;;;;;;;11.30;91.10;;;;;;5098994;28;19934;-61
2023/10/28 07:52:15;;;;;;;;;;;11.40;91.10;;;;;;5101307;28;19932;-61
2023/10/28 07:54:49;;;;;;;;;;;11.40;91.00;;;;;;5097478;28;19939;-61
2023/10/28 07:57:23;;;;;;;;;;;11.40;90.90;;;;;;5100348;28;20562;-60
2023/10/28 07:59:57;;;;;;;;;;;11.40;91.00;;;;;;5101308;28;20026;-61
2023/10/28 08:02:43;;;;;;;;;;;11.50;91.10;;;;;;5098045;28;19935;-61
2023/10/28 08:05:18;;;;;;;;;;;11.60;91.00;;;;;;5096821;27;19934;-60
2023/10/28 08:07:52;;;;;;;;;;;11.70;90.80;;;;;;5101835;28;19924;-61
2023/10/28 08:10:26;;;;;;;;;;;11.80;90.70;;;;;;5100424;28;19955;-61
2023/10/28 08:13:00;;;;;;;;;;;11.70;90.60;;;;;;5099186;28;19931;-60
2023/10/28 08:15:33;;;;;;;;;;;11.70;90.70;;;;;;5095999;28;20383;-61
2023/10/28 08:18:07;;;;;;;;;;;11.70;90.60;;;;;;5103353;28;19923;-61
2023/10/28 08:20:44;;;;;;;;;;;11.70;90.50;;;;;;5101349;28;19924;-61
2023/10/28 08:23:17;;;;;;;;;;;11.70;90.50;;;;;;5098992;28;19996;-60
2023/10/28 08:25:51;;;;;;;;;;;11.70;90.30;;;;;;5100516;27;19924;-61
2023/10/28 08:28:24;;;;;;;;;;;11.70;90.40;;;;;;5099376;28;19924;-61
2023/10/28 08:30:58;;;;;;;;;;;11.70;90.30;;;;;;5097639;28;19923;-60
2023/10/28 08:33:31;;;;;;;;;;;11.70;90.20;;;;;;5094884;28;20019;-60
2023/10/28 08:36:07;;;;;;;;;;;11.70;90.20;;;;;;5114854;27;19928;-60
2023/10/28 08:38:41;;;;;;;;;;;11.70;90.40;;;;;;5098825;28;20362;-59
2023/10/28 08:41:16;;;;;;;;;;;11.60;90.30;;;;;;5100738;27;19934;-59
2023/10/28 08:43:49;;;;;;;;;;;11.60;90.40;;;;;;5092704;28;19932;-61
2023/10/28 08:46:17;;;;;;;;;;;11.70;90.40;;;;;;5096159;28;19934;-60
2023/10/28 08:48:52;;;;;;;;;;;11.60;90.30;;;;;;5099959;28;19947;-60
2023/10/28 08:51:27;;;;;;;;;;;11.60;90.30;;;;;;5095009;28;20298;-61
2023/10/28 08:54:02;;;;;;;;;;;11.70;90.20;;;;;;5095784;28;19967;-59
2023/10/28 08:56:37;;;;;;;;;;;11.70;90.20;;;;;;5099011;28;19931;-61
2023/10/28 08:59:10;;;;;;;;;;;11.70;90.00;;;;;;5094901;28;23379;-61
2023/10/28 09:01:44;;;;;;;;;;;11.70;90.10;;;;;;5097577;28;19923;-61
2023/10/28 09:04:21;;;;;;;;;;;11.70;90.00;;;;;;5099722;27;20409;-60
2023/10/28 09:06:58;;;;;;;;;;;11.70;90.00;;;;;;5099965;27;19931;-60
2023/10/28 09:09:32;;;;;;;;;;;11.70;89.80;;;;;;5098197;28;19928;-61
2023/10/28 09:12:09;;;;;;;;;;;11.80;89.70;;;;;;5096602;28;19931;-60
2023/10/28 09:14:43;;;;;;;;;;;11.80;89.70;;;;;;5097674;28;20268;-61
2023/10/28 09:17:22;;;;;;;;;;;11.80;89.60;;;;;;5097952;28;19977;-61
2023/10/28 09:19:56;;;;;;;;;;;11.80;89.60;;;;;;5099495;28;19932;-60
2023/10/28 09:22:31;;;;;;;;;;;11.80;89.50;;;;;;5098293;27;20043;-60
2023/10/28 09:24:59;;;;;;;;;;;11.80;89.70;;;;;;5100094;28;20004;-61
2023/10/28 09:27:33;;;;;;;;;;;11.80;89.80;;;;;;5100348;28;19924;-60
2023/10/28 09:30:08;;;;;;;;;;;11.90;89.60;;;;;;5096756;28;19927;-60
2023/10/28 09:32:41;;;;;;;;;;;11.90;89.60;;;;;;5100970;28;19931;-60
2023/10/28 09:35:14;;;;;;;;;;;12.00;89.60;;;;;;5095708;28;19963;-61
2023/10/28 09:37:48;;;;;;;;;;;12.00;89.60;;;;;;5091161;28;19928;-60
2023/10/28 09:40:22;;;;;;;;;;;12.00;89.70;;;;;;5095877;28;20302;-61
2023/10/28 09:42:56;;;;;;;;;;;12.00;89.90;;;;;;5100738;28;19935;-61
2023/10/28 09:45:30;;;;;;;;;;;11.90;89.90;;;;;;5097533;28;19932;-61
2023/10/28 09:48:07;;;;;;;;;;;11.90;90.00;;;;;;5098892;28;19977;-61
2023/10/28 09:50:44;;;;;;;;;;;11.90;90.00;;;;;;5096505;28;20386;-60
2023/10/28 09:53:24;;;;;;;;;;;11.90;90.00;;;;;;5091074;28;19924;-60
2023/10/28 09:56:01;;;;;;;;;;;11.90;90.10;;;;;;5092025;28;19938;-69
2023/10/28 09:58:38;;;;;;;;;;;11.90;90.10;;;;;;5095523;28;19938;-69
2023/10/28 10:01:15;;;;;;;;;;;11.90;90.10;;;;;;5092136;28;19923;-71
2023/10/28 10:03:57;;;;;;;;;;;12.10;90.10;;;;;;5099401;28;19935;-69
2023/10/28 10:06:30;;;;;;;;;;;12.00;90.00;;;;;;5095548;28;19928;-68
2023/10/28 10:09:07;;;;;;;;;;;12.10;90.10;;;;;;5098150;28;19927;-70
2023/10/28 10:11:42;;;;;;;;;;;12.10;90.10;;;;;;5097822;28;19928;-68
2023/10/28 10:14:17;;;;;;;;;;;12.00;89.90;;;;;;5093204;28;19939;-69
2023/10/28 10:16:55;;;;;;;;;;;12.10;89.90;;;;;;5099316;28;19950;-69
2023/10/28 10:19:33;;;;;;;;;;;12.20;89.90;;;;;;5092100;28;19932;-69
2023/10/28 10:22:07;;;;;;;;;;;12.20;89.80;;;;;;5098312;28;19996;-70
2023/10/28 10:24:50;;;;;;;;;;;12.30;89.60;;;;;;5100383;28;19927;-70
2023/10/28 10:27:44;;;;;;;;;;;12.30;89.40;;;;;;5096867;28;19928;-69
2023/10/28 10:30:33;;;;;;;;;;;12.30;89.40;;;;;;5094898;28;20915;-71
2023/10/28 10:33:07;;;;;;;;;;;12.30;89.40;;;;;;5099151;28;19928;-70
2023/10/28 10:35:46;;;;;;;;;;;12.40;89.40;;;;;;5099389;28;19924;-71
2023/10/28 10:38:28;;;;;;;;;;;12.30;89.30;;;;;;5091124;28;20351;-70
2023/10/28 10:41:02;;;;;;;;;;;12.30;89.10;;;;;;5101628;28;19932;-69
2023/10/28 10:43:38;;;;;;;;;;;12.40;89.20;;;;;;5099299;28;19932;-69
2023/10/28 10:46:11;;;;;;;;;;;12.40;89.20;;;;;;5088449;28;19932;-69
2023/10/28 10:48:46;;;;;;;;;;;12.40;89.20;;;;;;5090485;28;20033;-70
2023/10/28 10:51:21;;;;;;;;;;;12.40;89.10;;;;;;5098803;28;19924;-70
2023/10/28 10:53:54;;;;;;;;;;;12.40;89.10;;;;;;5096809;28;19928;-69
2023/10/28 10:56:28;;;;;;;;;;;12.50;88.90;;;;;;5093808;28;19950;-70
2023/10/28 10:59:09;;;;;;;;;;;12.60;88.90;;;;;;5095808;28;19924;-70
2023/10/28 11:01:43;;;;;;;;;;;12.60;88.90;;;;;;5094157;28;19933;-69
2023/10/28 11:04:16;;;;;;;;;;;12.60;88.80;;;;;;5098653;28;19927;-70
2023/10/28 11:06:51;;;;;;;;;;;12.60;88.80;;;;;;5098266;28;20028;-64
2023/10/28 11:09:25;;;;;;;;;;;12.60;88.90;;;;;;5099113;28;19924;-66
2023/10/28 11:11:59;;;;;;;;;;;12.60;88.70;;;;;;5098775;28;20294;-65
2023/10/28 11:14:33;;;;;;;;;;;12.60;88.70;;;;;;5093718;28;20386;-65
2023/10/28 11:17:06;;;;;;;;;;;12.60;88.80;;;;;;5088508;28;19939;-63
2023/10/28 11:19:47;;;;;;;;;;;12.60;88.70;;;;;;5095932;28;19927;-65
2023/10/28 11:22:26;;;;;;;;;;;12.60;88.60;;;;;;5094986;28;19923;-66
2023/10/28 11:25:03;;;;;;;;;;;12.60;88.50;;;;;;5096775;28;19935;-64
2023/10/28 11:27:38;;;;;;;;;;;12.60;88.30;;;;;;5097851;28;19931;-65
2023/10/28 11:30:12;;;;;;;;;;;12.60;88.20;;;;;;5086539;28;19931;-64
2023/10/28 11:32:46;;;;;;;;;;;12.60;88.10;;;;;;5102727;27;20006;-66
2023/10/28 11:35:14;;;;;;;;;;;12.60;88.10;;;;;;5098022;27;20001;-65
2023/10/28 11:37:47;;;;;;;;;;;12.60;88.30;;;;;;5100310;28;19958;-66
2023/10/28 11:40:21;;;;;;;;;;;12.60;88.20;;;;;;5095656;28;19928;-65
2023/10/28 11:42:55;;;;;;;;;;;12.60;88.20;;;;;;5095951;28;20374;-64
2023/10/28 11:45:29;;;;;;;;;;;12.60;88.20;;;;;;5097130;27;20022;-65
2023/10/28 11:47:55;;;;;;;;;;;12.60;88.10;;;;;;5100054;28;19924;-65
2023/10/28 11:50:29;;;;;;;;;;;12.60;88.20;;;;;;5099337;28;19932;-64
2023/10/28 11:53:03;;;;;;;;;;;12.60;88.10;;;;;;5096507;27;19932;-65
2023/10/28 11:55:36;;;;;;;;;;;12.60;88.00;;;;;;5101625;28;19935;-66
2023/10/28 11:58:10;;;;;;;;;;;12.60;88.00;;;;;;5095340;27;19934;-64
2023/10/28 12:00:44;;;;;;;;;;;12.60;88.00;;;;;;5096304;28;19932;-65
2023/10/28 12:03:18;;;;;;;;;;;12.60;87.90;;;;;;5101702;28;19995;-65
2023/10/28 12:05:51;;;;;;;;;;;12.70;87.90;;;;;;5094620;28;19938;-65
2023/10/28 12:08:24;;;;;;;;;;;12.70;87.60;;;;;;5099287;28;19943;-64
2023/10/28 12:10:57;;;;;;;;;;;12.70;87.60;;;;;;5098509;28;19928;-65
2023/10/28 12:13:32;;;;;;;;;;;12.80;87.60;;;;;;5097324;28;19938;-65
2023/10/28 12:16:06;;;;;;;;;;;12.80;87.50;;;;;;5096983;28;19928;-61
2023/10/28 12:18:40;;;;;;;;;;;12.80;87.50;;;;;;5098108;28;20414;-61
2023/10/28 12:21:15;;;;;;;;;;;12.80;87.30;;;;;;5099804;27;19930;-62
2023/10/28 12:23:48;;;;;;;;;;;12.80;87.40;;;;;;5087567;27;20029;-61
2023/10/28 12:26:27;;;;;;;;;;;12.80;87.40;;;;;;5094580;28;19928;-62
2023/10/28 12:29:03;;;;;;;;;;;12.80;87.50;;;;;;5101216;27;19955;-60
2023/10/28 12:31:37;;;;;;;;;;;12.80;87.50;;;;;;5100132;28;19968;-61
2023/10/28 12:34:14;;;;;;;;;;;12.80;87.40;;;;;;5098770;28;19930;-62
2023/10/28 12:36:50;;;;;;;;;;;12.70;87.30;;;;;;5100097;28;20424;-60
2023/10/28 12:39:23;;;;;;;;;;;12.80;87.40;;;;;;5093394;27;19930;-61
2023/10/28 12:42:14;;;;;;;;;;;12.80;87.20;;;;;;5115881;27;19927;-60
2023/10/28 12:45:14;;;;;;;;;;;12.80;87.30;;;;;;5101447;28;19934;-62
2023/10/28 12:47:49;;;;;;;;;;;12.80;87.40;;;;;;5098078;28;20018;-61
2023/10/28 12:50:22;;;;;;;;;;;12.70;87.10;;;;;;5098495;28;20370;-61
2023/10/28 12:52:55;;;;;;;;;;;12.80;87.20;;;;;;5099011;28;19924;-61
2023/10/28 12:55:29;;;;;;;;;;;12.80;87.30;;;;;;5096735;28;19928;-61
2023/10/28 12:58:02;;;;;;;;;;;12.70;87.30;;;;;;5095150;28;19928;-61
2023/10/28 13:00:38;;;;;;;;;;;12.70;87.40;;;;;;5099448;28;20331;-61
2023/10/28 13:03:11;;;;;;;;;;;12.70;87.50;;;;;;5098247;28;19931;-63
2023/10/28 13:05:45;;;;;;;;;;;12.70;87.60;;;;;;5099513;28;19928;-60
2023/10/28 13:08:19;;;;;;;;;;;12.70;87.60;;;;;;5085376;28;20751;-62
2023/10/28 13:10:52;;;;;;;;;;;12.70;87.80;;;;;;5094958;28;19978;-62
2023/10/28 13:13:25;;;;;;;;;;;12.70;87.80;;;;;;5097919;28;19928;-60
2023/10/28 13:16:00;;;;;;;;;;;12.70;87.80;;;;;;5098184;28;20423;-60
2023/10/28 13:18:34;;;;;;;;;;;12.70;87.80;;;;;;5098841;28;19932;-61
2023/10/28 13:21:07;;;;;;;;;;;12.70;87.90;;;;;;5101515;27;19931;-60
2023/10/28 13:23:41;;;;;;;;;;;12.70;87.90;;;;;;5097929;28;20011;-61
2023/10/28 13:26:15;;;;;;;;;;;12.70;88.00;;;;;;5096104;28;19969;-68
2023/10/28 13:28:49;;;;;;;;;;;12.60;88.00;;;;;;5091113;28;19932;-71
2023/10/28 13:31:24;;;;;;;;;;;12.70;87.90;;;;;;5099720;28;19931;-69
2023/10/28 13:33:58;;;;;;;;;;;12.70;87.90;;;;;;5099466;28;19981;-70
2023/10/28 13:36:31;;;;;;;;;;;12.70;87.80;;;;;;5099969;28;19931;-70
2023/10/28 13:39:04;;;;;;;;;;;12.70;87.80;;;;;;5079855;28;19928;-70
2023/10/28 13:41:37;;;;;;;;;;;12.70;87.70;;;;;;5101024;28;19936;-70
2023/10/28 13:44:11;;;;;;;;;;;12.60;87.70;;;;;;5093014;28;19956;-69
2023/10/28 13:46:46;;;;;;;;;;;12.60;87.80;;;;;;5094474;28;19931;-70
2023/10/28 13:49:20;;;;;;;;;;;12.70;87.90;;;;;;5100262;28;20026;-70
2023/10/28 13:51:53;;;;;;;;;;;12.60;88.00;;;;;;5100971;28;20371;-69
2023/10/28 13:54:27;;;;;;;;;;;12.60;88.10;;;;;;5094383;28;20363;-69
2023/10/28 13:57:01;;;;;;;;;;;12.60;88.20;;;;;;5097348;28;20003;-70
2023/10/28 13:59:34;;;;;;;;;;;12.60;88.50;;;;;;5100178;28;19941;-69
2023/10/28 14:02:09;;;;;;;;;;;12.60;88.60;;;;;;5098604;28;19977;-69
2023/10/28 14:04:44;;;;;;;;;;;12.50;88.80;;;;;;5101026;28;19928;-70
2023/10/28 14:07:17;;;;;;;;;;;12.50;89.10;;;;;;5100178;28;19924;-69
2023/10/28 14:09:51;;;;;;;;;;;12.50;89.20;;;;;;5097977;28;19972;-69
2023/10/28 14:12:24;;;;;;;;;;;12.50;89.30;;;;;;5092420;28;20016;-70
2023/10/28 14:14:58;;;;;;;;;;;12.40;89.50;;;;;;5095559;28;19932;-70
2023/10/28 14:17:34;;;;;;;;;;;12.40;89.70;;;;;;5096951;28;19931;-70
2023/10/28 14:20:01;;;;;;;;;;;12.40;89.80;;;;;;5093207;28;19931;-70
2023/10/28 14:22:35;;;;;;;;;;;12.40;89.80;;;;;;5091893;28;20019;-69
2023/10/28 14:25:09;;;;;;;;;;;12.40;90.00;;;;;;5095775;28;19955;-70
2023/10/28 14:27:36;;;;;;;;;;;12.40;89.90;;;;;;5084836;28;19924;-69
2023/10/28 14:30:09;;;;;;;;;;;12.40;90.00;;;;;;5092045;28;19932;-70
2023/10/28 14:32:37;;;;;;;;;;;12.40;90.10;;;;;;5097574;28;19930;-69
2023/10/28 14:35:11;;;;;;;;;;;12.40;90.10;;;;;;5101430;28;19997;-70
2023/10/28 14:37:57;;;;;;;;;;;12.40;90.00;;;;;;5101017;28;19931;-70
2023/10/28 14:40:32;;;;;;;;;;;12.40;89.90;;;;;;5097277;27;20938;-70
2023/10/28 14:43:18;;;;;;;;;;;12.50;89.80;;;;;;5098643;28;19923;-69
2023/10/28 14:45:52;;;;;;;;;;;12.50;89.80;;;;;;5104824;28;19932;-70
2023/10/28 14:48:26;;;;;;;;;;;12.50;89.80;;;;;;5099861;28;20479;-70
2023/10/28 14:51:00;;;;;;;;;;;12.40;89.80;;;;;;5101014;28;20391;-69
2023/10/28 14:53:35;;;;;;;;;;;12.40;89.80;;;;;;5089800;28;19978;-69
2023/10/28 14:56:14;;;;;;;;;;;12.30;89.80;;;;;;5114961;27;19969;-70